createdAt,value
2017-12-19T00:02:16.034Z,152.40
2017-12-19T00:04:43.581Z,141.90
2017-12-19T00:07:11.158Z,142.85
2017-12-19T00:09:38.653Z,184.05
2017-12-19T00:12:06.165Z,165.70
2017-12-19T00:14:34.454Z,196.77
2017-12-19T00:17:01.922Z,149.15
2017-12-19T00:19:29.427Z,158.35
2017-12-19T00:21:56.917Z,147.82
2017-12-19T00:24:24.459Z,154.48
2017-12-19T00:26:51.945Z,140.27
2017-12-19T00:29:19.426Z,128.25
2017-12-19T00:31:46.917Z,131.52
2017-12-19T00:34:14.417Z,149.48
2017-12-19T00:36:41.895Z,130.98
2017-12-19T00:39:09.402Z,134.77
2017-12-19T00:41:36.886Z,164.25
2017-12-19T00:44:04.423Z,163.60
2017-12-19T00:46:31.921Z,148.30
2017-12-19T00:48:59.448Z,133.93
2017-12-19T00:51:27.690Z,155.27
2017-12-19T00:53:55.185Z,190.88
2017-12-19T00:56:23.466Z,149.32
2017-12-19T00:58:51.734Z,178.45
2017-12-19T01:01:20.010Z,160.65
2017-12-19T01:03:48.304Z,159.70
2017-12-19T01:06:15.787Z,129.95
2017-12-19T01:08:43.327Z,170.75
2017-12-19T01:11:10.836Z,154.23
2017-12-19T01:13:38.336Z,124.32
2017-12-19T01:16:06.577Z,168.52
2017-12-19T01:18:34.085Z,150.87
2017-12-19T01:21:01.565Z,129.00
2017-12-19T01:23:29.102Z,130.00
2017-12-19T01:25:56.606Z,123.90
2017-12-19T01:28:24.087Z,133.63
2017-12-19T01:30:52.405Z,130.80
2017-12-19T01:33:19.893Z,118.35
2017-12-19T01:35:47.374Z,143.43
2017-12-19T01:38:14.882Z,125.78
2017-12-19T01:40:42.380Z,134.30
2017-12-19T01:43:09.863Z,185.02
2017-12-19T01:45:38.141Z,136.12
2017-12-19T01:48:06.406Z,129.48
2017-12-19T01:50:34.685Z,164.15
2017-12-19T01:53:02.938Z,119.85
2017-12-19T01:55:30.418Z,162.50
2017-12-19T01:57:58.694Z,135.02
2017-12-19T02:00:26.995Z,164.65
2017-12-19T02:02:54.481Z,155.82
2017-12-19T02:05:22.031Z,144.65
2017-12-19T02:07:49.544Z,149.73
2017-12-19T02:10:17.025Z,145.62
2017-12-19T02:12:44.554Z,162.07
2017-12-19T02:15:12.058Z,158.70
2017-12-19T02:17:39.529Z,142.07
2017-12-19T02:20:07.058Z,151.35
2017-12-19T02:22:34.591Z,142.37
2017-12-19T02:25:02.068Z,142.82
2017-12-19T02:27:29.614Z,125.80
2017-12-19T02:29:57.902Z,136.60
2017-12-19T02:32:26.285Z,151.55
2017-12-19T02:34:53.811Z,130.37
2017-12-19T02:37:21.347Z,149.27
2017-12-19T02:39:48.817Z,166.07
2017-12-19T02:42:16.325Z,126.72
2017-12-19T02:44:43.821Z,154.30
2017-12-19T02:47:11.326Z,138.93
2017-12-19T02:49:39.602Z,144.73
2017-12-19T02:52:07.882Z,129.45
2017-12-19T02:54:35.389Z,97.78
2017-12-19T02:57:02.894Z,114.55
2017-12-19T02:59:31.144Z,114.40
2017-12-19T03:01:58.638Z,102.30
2017-12-19T03:04:26.163Z,102.50
2017-12-19T03:06:53.658Z,108.20
2017-12-19T03:09:21.121Z,108.45
2017-12-19T03:11:48.629Z,102.07
2017-12-19T03:14:16.129Z,109.50
2017-12-19T03:16:43.617Z,92.68
2017-12-19T03:19:11.141Z,103.10
2017-12-19T03:21:39.385Z,113.30
2017-12-19T03:24:06.881Z,97.68
2017-12-19T03:26:34.357Z,105.10
2017-12-19T03:29:01.869Z,100.55
2017-12-19T03:31:29.398Z,117.57
2017-12-19T03:33:56.932Z,113.47
2017-12-19T03:36:24.448Z,130.43
2017-12-19T03:38:52.721Z,108.63
2017-12-19T03:41:20.209Z,96.95
2017-12-19T03:43:47.702Z,103.07
2017-12-19T03:46:15.193Z,99.00
2017-12-19T03:48:42.674Z,87.45
2017-12-19T03:51:10.151Z,89.90
2017-12-19T03:53:37.679Z,106.63
2017-12-19T03:56:05.946Z,110.10
2017-12-19T03:58:33.467Z,102.95
2017-12-19T04:01:01.021Z,99.18
2017-12-19T04:03:28.485Z,81.28
2017-12-19T04:05:55.985Z,101.62
2017-12-19T04:08:24.238Z,90.28
2017-12-19T04:10:51.718Z,98.15
2017-12-19T04:13:19.958Z,91.10
2017-12-19T04:15:47.470Z,85.65
2017-12-19T04:18:14.954Z,101.10
2017-12-19T04:20:42.444Z,94.18
2017-12-19T04:23:13.457Z,96.22
2017-12-19T04:25:40.966Z,100.05
2017-12-19T04:28:08.443Z,90.65
2017-12-19T04:30:35.934Z,94.30
2017-12-19T04:33:03.465Z,89.95
2017-12-19T04:35:31.734Z,97.93
2017-12-19T04:37:59.988Z,82.28
2017-12-19T04:40:27.504Z,93.15
2017-12-19T04:42:55.007Z,87.62
2017-12-19T04:45:22.494Z,97.37
2017-12-19T04:47:49.990Z,98.03
2017-12-19T04:50:17.489Z,86.32
2017-12-19T04:52:45.794Z,85.57
2017-12-19T04:55:13.241Z,76.50
2017-12-19T04:57:44.462Z,80.68
2017-12-19T05:00:11.975Z,71.10
2017-12-19T05:02:39.487Z,85.93
2017-12-19T05:05:07.717Z,76.70
2017-12-19T05:07:35.214Z,77.90
2017-12-19T05:10:03.462Z,92.25
2017-12-19T05:12:30.951Z,76.37
2017-12-19T05:14:58.435Z,75.72
2017-12-19T05:17:25.940Z,81.00
2017-12-19T05:19:53.483Z,70.55
2017-12-19T05:22:20.987Z,77.45
2017-12-19T05:24:49.253Z,77.28
2017-12-19T05:27:16.734Z,79.30
2017-12-19T05:29:44.239Z,76.28
2017-12-19T05:32:11.740Z,98.75
2017-12-19T05:34:39.219Z,89.65
2017-12-19T05:37:06.745Z,77.95
2017-12-19T05:39:34.220Z,86.57
2017-12-19T05:42:02.469Z,99.82
2017-12-19T05:44:29.953Z,78.80
2017-12-19T05:46:58.181Z,69.00
2017-12-19T05:49:25.675Z,76.80
2017-12-19T05:51:53.931Z,77.45
2017-12-19T05:54:21.443Z,74.43
2017-12-19T05:56:48.961Z,110.32
2017-12-19T05:59:16.468Z,88.82
2017-12-19T06:01:43.951Z,103.68
2017-12-19T06:04:11.439Z,74.20
2017-12-19T06:06:39.725Z,95.95
2017-12-19T06:09:07.994Z,79.05
2017-12-19T06:11:36.247Z,82.90
2017-12-19T06:14:03.738Z,84.05
2017-12-19T06:16:31.980Z,74.43
2017-12-19T06:18:59.497Z,90.00
2017-12-19T06:21:26.995Z,76.25
2017-12-19T06:23:54.482Z,79.00
2017-12-19T06:26:22.798Z,73.32
2017-12-19T06:28:50.280Z,84.45
2017-12-19T06:31:17.778Z,74.78
2017-12-19T06:33:46.088Z,77.28
2017-12-19T06:36:13.615Z,83.43
2017-12-19T06:38:41.144Z,93.97
2017-12-19T06:41:08.613Z,83.85
2017-12-19T06:43:36.126Z,95.12
2017-12-19T06:46:16.377Z,83.95
2017-12-19T06:51:42.577Z,106.07
2017-12-19T06:54:10.180Z,94.72
2017-12-19T06:56:37.795Z,93.90
2017-12-19T06:59:05.313Z,128.77
2017-12-19T07:01:32.916Z,91.15
2017-12-19T07:04:00.516Z,106.75
2017-12-19T07:06:28.113Z,93.12
2017-12-19T07:08:55.714Z,184.80
2017-12-19T07:11:23.331Z,115.78
2017-12-19T07:13:50.930Z,243.35
2017-12-19T07:16:18.480Z,207.43
2017-12-19T07:18:46.009Z,131.05
2017-12-19T07:21:16.845Z,143.50
2017-12-19T07:23:44.355Z,118.80
2017-12-19T07:26:18.387Z,93.57
2017-12-19T07:28:45.908Z,105.07
2017-12-19T07:31:14.248Z,183.73
2017-12-19T07:33:41.846Z,129.27
2017-12-19T07:36:10.173Z,103.72
2017-12-19T07:38:37.739Z,113.40
2017-12-19T07:41:05.280Z,108.32
2017-12-19T07:43:32.833Z,91.35
2017-12-19T07:46:00.350Z,118.40
2017-12-19T07:48:27.942Z,87.75
2017-12-19T07:50:55.467Z,115.95
2017-12-19T07:53:23.010Z,106.47
2017-12-19T07:55:50.539Z,125.38
2017-12-19T07:58:18.079Z,167.40
2017-12-19T08:00:45.632Z,130.18
2017-12-19T08:03:13.213Z,110.37
2017-12-19T08:05:40.765Z,154.60
2017-12-19T08:08:08.281Z,119.43
2017-12-19T08:10:35.842Z,129.30
2017-12-19T08:13:03.332Z,113.12
2017-12-19T08:15:30.843Z,120.78
2017-12-19T08:17:58.407Z,89.10
2017-12-19T08:20:25.964Z,89.28
2017-12-19T08:22:53.476Z,84.93
2017-12-19T08:25:21.042Z,90.05
2017-12-19T08:27:48.540Z,104.70
2017-12-19T08:30:16.079Z,141.43
2017-12-19T08:32:43.605Z,149.43
2017-12-19T08:35:11.128Z,99.90
2017-12-19T08:37:39.470Z,81.35
2017-12-19T08:40:06.980Z,64.97
2017-12-19T08:42:34.516Z,87.45
2017-12-19T08:45:02.036Z,117.50
2017-12-19T08:47:29.542Z,157.93
2017-12-19T08:49:57.106Z,103.10
2017-12-19T08:52:25.435Z,111.97
2017-12-19T08:54:53.015Z,85.35
2017-12-19T08:57:20.548Z,84.53
2017-12-19T08:59:48.099Z,121.22
2017-12-19T09:02:15.714Z,111.45
2017-12-19T09:04:43.259Z,111.30
2017-12-19T09:07:10.786Z,85.78
2017-12-19T09:09:38.319Z,109.57
2017-12-19T09:12:05.914Z,91.05
2017-12-19T09:14:33.430Z,99.87
2017-12-19T09:17:01.720Z,81.28
2017-12-19T09:19:29.350Z,115.55
2017-12-19T09:21:56.928Z,76.75
2017-12-19T09:24:25.267Z,100.47
2017-12-19T09:26:52.843Z,74.07
2017-12-19T09:29:20.403Z,61.30
2017-12-19T09:31:47.970Z,60.65
2017-12-19T09:34:15.564Z,83.18
2017-12-19T09:36:43.151Z,72.97
2017-12-19T09:39:10.720Z,64.57
2017-12-19T09:41:38.295Z,88.50
2017-12-19T09:44:05.829Z,73.22
2017-12-19T09:46:33.383Z,70.57
2017-12-19T09:49:00.898Z,80.40
2017-12-19T09:51:29.195Z,59.45
2017-12-19T09:53:56.741Z,81.97
2017-12-19T09:56:25.036Z,74.53
2017-12-19T09:58:52.561Z,87.55
2017-12-19T10:01:20.947Z,74.43
2017-12-19T10:03:48.515Z,68.47
2017-12-19T10:06:20.796Z,85.57
2017-12-19T10:08:48.347Z,87.55
2017-12-19T10:11:16.673Z,80.47
2017-12-19T10:13:44.193Z,69.18
2017-12-19T10:16:11.724Z,72.07
2017-12-19T10:18:45.046Z,59.53
2017-12-19T10:21:12.605Z,93.60
2017-12-19T10:23:40.164Z,65.18
2017-12-19T10:26:07.725Z,95.43
2017-12-19T10:28:35.281Z,63.85
2017-12-19T10:31:02.867Z,64.53
2017-12-19T10:33:30.404Z,63.33
2017-12-19T10:35:58.680Z,67.75
2017-12-19T10:38:26.239Z,59.80
2017-12-19T10:40:53.799Z,60.90
2017-12-19T10:43:21.385Z,68.40
2017-12-19T10:45:48.931Z,67.43
2017-12-19T10:48:16.443Z,60.33
2017-12-19T10:50:43.959Z,50.35
2017-12-19T10:53:11.520Z,50.55
2017-12-19T10:55:39.021Z,47.03
2017-12-19T10:58:06.584Z,51.58
2017-12-19T11:00:34.107Z,48.75
2017-12-19T11:03:01.671Z,55.20
2017-12-19T11:05:29.199Z,53.92
2017-12-19T11:07:56.810Z,46.78
2017-12-19T11:10:24.351Z,48.83
2017-12-19T11:12:51.865Z,49.38
2017-12-19T11:15:20.184Z,51.10
2017-12-19T11:17:47.749Z,45.92
2017-12-19T11:20:15.381Z,47.92
2017-12-19T11:22:42.939Z,49.00
2017-12-19T11:25:10.466Z,41.97
2017-12-19T11:27:38.785Z,47.62
2017-12-19T11:30:14.190Z,39.80
2017-12-19T11:32:42.465Z,47.22
2017-12-19T11:35:10.810Z,37.20
2017-12-19T11:37:38.387Z,35.20
2017-12-19T11:40:05.936Z,43.55
2017-12-19T11:42:33.467Z,36.10
2017-12-19T11:45:01.034Z,42.55
2017-12-19T11:47:28.587Z,49.00
2017-12-19T11:49:56.159Z,35.08
2017-12-19T11:52:23.698Z,33.47
2017-12-19T11:54:51.224Z,35.28
2017-12-19T11:57:19.579Z,34.22
2017-12-19T11:59:47.204Z,31.75
2017-12-19T12:02:14.754Z,36.63
2017-12-19T12:04:42.279Z,31.25
2017-12-19T12:07:10.572Z,36.83
2017-12-19T12:09:38.124Z,34.35
2017-12-19T12:12:06.453Z,38.90
2017-12-19T12:14:34.006Z,37.40
2017-12-19T12:17:01.566Z,33.42
2017-12-19T12:19:29.055Z,23.62
2017-12-19T12:21:56.625Z,27.92
2017-12-19T12:24:24.940Z,41.92
2017-12-19T12:26:52.503Z,27.25
2017-12-19T12:29:20.014Z,29.27
2017-12-19T12:31:47.607Z,34.83
2017-12-19T12:34:15.160Z,32.08
2017-12-19T12:36:42.722Z,27.23
2017-12-19T12:39:10.247Z,29.58
2017-12-19T12:41:37.810Z,19.62
2017-12-19T12:44:05.342Z,21.83
2017-12-19T12:46:32.887Z,27.48
2017-12-19T12:49:00.415Z,29.92
2017-12-19T12:51:27.933Z,27.02
2017-12-19T12:53:55.532Z,23.08
2017-12-19T12:56:23.067Z,24.15
2017-12-19T12:58:50.622Z,22.90
2017-12-19T13:01:18.162Z,19.60
2017-12-19T13:03:45.737Z,22.80
2017-12-19T13:06:13.279Z,24.70
2017-12-19T13:08:40.811Z,21.45
2017-12-19T13:11:08.347Z,21.40
2017-12-19T13:13:35.918Z,28.23
2017-12-19T13:16:03.449Z,21.65
2017-12-19T13:18:31.030Z,26.73
2017-12-19T13:20:58.596Z,21.50
2017-12-19T13:23:26.131Z,25.88
2017-12-19T13:25:53.746Z,24.70
2017-12-19T13:28:21.275Z,25.30
2017-12-19T13:30:48.814Z,23.23
2017-12-19T13:33:16.381Z,22.58
2017-12-19T13:35:44.685Z,24.52
2017-12-19T13:38:12.192Z,29.48
2017-12-19T13:40:39.765Z,23.83
2017-12-19T13:43:08.062Z,20.55
2017-12-19T13:45:35.617Z,20.90
2017-12-19T13:48:04.248Z,27.02
2017-12-19T13:50:31.803Z,23.17
2017-12-19T13:52:59.332Z,24.48
2017-12-19T13:55:26.882Z,26.40
2017-12-19T13:57:54.417Z,26.40
2017-12-19T14:00:21.950Z,24.58
2017-12-19T14:02:49.506Z,29.95
2017-12-19T14:05:16.987Z,33.70
2017-12-19T14:07:44.506Z,30.75
2017-12-19T14:10:12.030Z,35.17
2017-12-19T14:12:39.531Z,36.45
2017-12-19T14:15:07.057Z,28.60
2017-12-19T14:17:34.602Z,36.90
2017-12-19T14:20:02.168Z,26.83
2017-12-19T14:22:30.446Z,30.35
2017-12-19T14:24:58.026Z,39.08
2017-12-19T14:27:25.550Z,31.87
2017-12-19T14:29:53.890Z,36.45
2017-12-19T14:32:21.443Z,42.62
2017-12-19T14:34:49.043Z,41.47
2017-12-19T14:37:16.588Z,36.50
2017-12-19T14:39:44.111Z,37.15
2017-12-19T14:42:11.650Z,27.67
2017-12-19T14:44:39.220Z,30.80
2017-12-19T14:47:06.771Z,31.80
2017-12-19T14:49:34.319Z,25.58
2017-12-19T14:52:01.884Z,39.95
2017-12-19T14:54:29.440Z,38.65
2017-12-19T14:56:57.696Z,39.75
2017-12-19T14:59:25.204Z,37.72
2017-12-19T15:01:52.718Z,37.75
2017-12-19T15:04:20.985Z,36.97
2017-12-19T15:06:49.277Z,36.90
2017-12-19T15:09:16.803Z,33.92
2017-12-19T15:11:44.325Z,34.58
2017-12-19T15:14:11.848Z,32.97
2017-12-19T15:16:39.336Z,43.50
2017-12-19T15:19:06.859Z,37.17
2017-12-19T15:21:34.341Z,30.15
2017-12-19T15:24:01.859Z,33.45
2017-12-19T15:26:29.357Z,40.15
2017-12-19T15:28:57.295Z,34.08
2017-12-19T15:31:24.804Z,35.97
2017-12-19T15:33:52.378Z,34.35
2017-12-19T15:36:19.940Z,39.35
2017-12-19T15:38:47.502Z,36.78
2017-12-19T15:41:15.008Z,41.35
2017-12-19T15:43:43.291Z,33.00
2017-12-19T15:46:11.575Z,41.30
2017-12-19T15:48:39.069Z,32.10
2017-12-19T15:51:06.587Z,35.15
2017-12-19T15:53:34.959Z,44.10
2017-12-19T15:56:02.528Z,43.65
2017-12-19T15:58:47.403Z,35.92
2017-12-19T16:01:14.910Z,43.05
2017-12-19T16:03:42.491Z,39.40
2017-12-19T16:06:10.843Z,38.45
2017-12-19T16:08:38.359Z,39.38
2017-12-19T16:11:05.969Z,43.85
2017-12-19T16:13:36.811Z,42.47
2017-12-19T16:16:08.371Z,48.92
2017-12-19T16:18:42.993Z,44.38
2017-12-19T16:21:11.312Z,45.90
2017-12-19T16:23:38.812Z,36.55
2017-12-19T16:26:06.320Z,51.88
2017-12-19T16:28:33.906Z,43.15
2017-12-19T16:31:01.490Z,44.63
2017-12-19T16:33:29.279Z,46.05
2017-12-19T16:38:39.302Z,36.83
2017-12-19T16:41:06.811Z,43.60
2017-12-19T16:43:34.329Z,45.80
2017-12-19T16:46:01.853Z,42.22
2017-12-19T16:48:29.378Z,48.65
2017-12-19T16:50:56.870Z,47.28
2017-12-19T16:53:24.378Z,44.92
2017-12-19T16:55:51.902Z,60.50
2017-12-19T16:58:19.421Z,78.97
2017-12-19T17:00:47.734Z,56.35
2017-12-19T17:03:18.610Z,70.07
2017-12-19T17:05:46.110Z,62.15
2017-12-19T17:08:13.659Z,57.05
2017-12-19T17:10:41.971Z,58.00
2017-12-19T17:13:09.495Z,48.30
2017-12-19T17:15:37.084Z,51.75
2017-12-19T17:18:05.331Z,55.85
2017-12-19T17:20:33.597Z,59.58
2017-12-19T17:23:01.903Z,58.25
2017-12-19T17:25:29.439Z,70.37
2017-12-19T17:27:56.945Z,62.85
2017-12-19T17:30:24.469Z,50.85
2017-12-19T17:32:56.529Z,55.75
2017-12-19T17:35:23.990Z,53.10
2017-12-19T17:37:52.275Z,57.70
2017-12-19T17:40:19.828Z,50.85
2017-12-19T17:42:58.589Z,58.75
2017-12-19T17:45:26.093Z,50.78
2017-12-19T17:47:53.594Z,51.47
2017-12-19T17:50:21.142Z,50.65
2017-12-19T17:52:48.664Z,57.28
2017-12-19T17:55:16.153Z,55.92
2017-12-19T17:57:43.670Z,51.42
2017-12-19T18:00:11.217Z,44.58
2017-12-19T18:02:38.759Z,52.67
2017-12-19T18:05:06.265Z,54.25
2017-12-19T18:07:34.535Z,59.00
2017-12-19T18:10:02.044Z,67.82
2017-12-19T18:12:29.609Z,58.42
2017-12-19T18:14:57.104Z,60.80
2017-12-19T18:17:24.602Z,66.28
2017-12-19T18:19:55.390Z,58.92
2017-12-19T18:22:22.923Z,59.63
2017-12-19T18:24:50.443Z,48.55
2017-12-19T18:27:17.983Z,64.57
2017-12-19T18:29:45.519Z,54.85
2017-12-19T18:32:13.088Z,69.22
2017-12-19T18:34:40.653Z,62.83
2017-12-19T18:37:08.210Z,54.60
2017-12-19T18:39:35.735Z,51.28
2017-12-19T18:42:03.254Z,51.37
2017-12-19T18:44:31.625Z,68.43
2017-12-19T18:46:59.058Z,49.83
2017-12-19T18:49:26.588Z,61.92
2017-12-19T18:51:54.101Z,46.13
2017-12-19T18:54:22.399Z,53.85
2017-12-19T18:56:49.937Z,63.50
2017-12-19T18:59:18.237Z,64.87
2017-12-19T19:01:45.792Z,51.37
2017-12-19T19:04:13.290Z,57.72
2017-12-19T19:06:40.848Z,62.08
2017-12-19T19:09:08.344Z,66.53
2017-12-19T19:11:35.871Z,58.92
2017-12-19T19:14:03.407Z,57.62
2017-12-19T19:16:30.911Z,62.83
2017-12-19T19:18:58.484Z,51.63
2017-12-19T19:21:26.774Z,78.12
2017-12-19T19:23:54.314Z,106.90
2017-12-19T19:26:22.587Z,69.78
2017-12-19T19:28:50.081Z,74.93
2017-12-19T19:31:17.583Z,90.25
2017-12-19T19:33:45.107Z,80.68
2017-12-19T19:36:19.046Z,85.05
2017-12-19T19:38:46.595Z,90.47
2017-12-19T19:41:14.118Z,80.70
2017-12-19T19:43:41.652Z,80.18
2017-12-19T19:46:09.931Z,88.25
2017-12-19T19:48:38.208Z,99.45
2017-12-19T19:51:05.690Z,82.70
2017-12-19T19:53:33.251Z,102.15
2017-12-19T19:56:01.478Z,99.90
2017-12-19T19:58:29.024Z,105.30
2017-12-19T20:00:56.636Z,101.80
2017-12-19T20:03:24.188Z,99.32
2017-12-19T20:05:52.523Z,109.57
2017-12-19T20:08:20.111Z,107.57
2017-12-19T20:10:47.648Z,115.28
2017-12-19T20:13:15.246Z,102.40
2017-12-19T20:15:42.758Z,118.53
2017-12-19T20:18:10.349Z,101.30
2017-12-19T20:20:37.897Z,87.40
2017-12-19T20:23:05.437Z,106.35
2017-12-19T20:25:32.949Z,110.95
2017-12-19T20:28:00.519Z,93.53
2017-12-19T20:30:28.049Z,116.07
2017-12-19T20:35:57.642Z,112.00
2017-12-19T20:38:26.127Z,100.97
2017-12-19T20:40:53.643Z,113.40
2017-12-19T20:43:21.212Z,98.25
2017-12-19T20:45:48.814Z,100.25
2017-12-19T20:48:16.379Z,87.70
2017-12-19T20:50:43.979Z,107.93
2017-12-19T20:53:11.544Z,107.87
2017-12-19T20:55:39.195Z,104.22
2017-12-19T20:58:06.739Z,107.25
2017-12-19T21:00:34.275Z,116.65
2017-12-19T21:03:01.878Z,137.07
2017-12-19T21:05:29.490Z,114.55
2017-12-19T21:07:57.078Z,119.60
2017-12-19T21:10:24.635Z,121.70
2017-12-19T21:13:02.937Z,121.65
2017-12-19T21:15:30.662Z,111.85
2017-12-19T21:18:01.653Z,121.50
2017-12-19T21:20:29.203Z,129.57
2017-12-19T21:22:56.778Z,135.02
2017-12-19T21:25:25.082Z,140.05
2017-12-19T21:27:52.648Z,148.43
2017-12-19T21:30:20.180Z,138.45
2017-12-19T21:32:48.494Z,153.75
2017-12-19T21:35:16.002Z,144.57
2017-12-19T21:37:43.536Z,147.07
2017-12-19T21:40:17.152Z,168.00
2017-12-19T21:42:44.685Z,173.55
2017-12-19T21:45:12.203Z,185.82
2017-12-19T21:47:42.714Z,213.07
2017-12-19T21:50:10.213Z,203.68
2017-12-19T21:52:37.747Z,186.70
2017-12-19T21:55:05.274Z,206.87
2017-12-19T21:57:32.778Z,212.75
2017-12-19T22:00:00.309Z,223.25
2017-12-19T22:02:28.649Z,218.82
2017-12-19T22:04:56.174Z,268.60
2017-12-19T22:07:23.707Z,216.93
2017-12-19T22:09:51.995Z,229.75
2017-12-19T22:12:19.558Z,222.57
2017-12-19T22:14:47.043Z,215.50
2017-12-19T22:17:14.558Z,289.58
2017-12-19T22:19:48.985Z,223.70
2017-12-19T22:22:17.273Z,231.20
2017-12-19T22:24:44.771Z,201.15
2017-12-19T22:27:12.331Z,211.87
2017-12-19T22:29:45.465Z,192.40
2017-12-19T22:32:12.979Z,206.63
2017-12-19T22:34:40.505Z,203.32
2017-12-19T22:37:08.030Z,171.43
2017-12-19T22:39:35.587Z,174.35
2017-12-19T22:42:03.117Z,202.50
2017-12-19T22:44:30.608Z,154.77
2017-12-19T22:46:58.098Z,179.55
2017-12-19T22:49:25.592Z,194.27
2017-12-19T22:51:53.146Z,165.48
2017-12-19T22:54:20.649Z,220.80
2017-12-19T22:56:48.929Z,215.73
2017-12-19T22:59:17.178Z,234.27
2017-12-19T23:01:44.674Z,251.57
2017-12-19T23:04:12.954Z,250.93
2017-12-19T23:06:40.439Z,299.77
2017-12-19T23:09:07.927Z,270.25
2017-12-19T23:11:35.406Z,264.95
2017-12-19T23:14:02.894Z,236.52
2017-12-19T23:16:30.389Z,285.48
2017-12-19T23:19:04.010Z,294.25
2017-12-19T23:21:31.529Z,292.90
2017-12-19T23:23:59.061Z,288.87
2017-12-19T23:26:26.636Z,270.02
2017-12-19T23:28:54.196Z,240.48
2017-12-19T23:31:21.679Z,283.42
2017-12-19T23:33:49.219Z,270.52
2017-12-19T23:36:16.766Z,228.48
2017-12-19T23:38:44.302Z,250.23
2017-12-19T23:41:11.818Z,236.68
2017-12-19T23:43:39.369Z,262.63
2017-12-19T23:46:06.924Z,205.57
2017-12-19T23:48:34.452Z,199.57
2017-12-19T23:51:01.967Z,259.35
2017-12-19T23:53:29.529Z,240.52
2017-12-19T23:55:57.093Z,167.02
2017-12-19T23:58:24.666Z,208.07
